Arak, Iran
Current Conditions -  °F | °C
As of 10:00 AM on Saturday 25 Oct 2014 (Local Time) from OIHM Reporting Station
Clear Clear  
Wind Chill: 61°   Ceiling: Unl
Heat Index: 61°   Visibility: 6mi
Dew Point: 37°   Wind: 5mph
Humidity: 42%   Direction: 120°ESE
Pressure: 30.18"   Gusts: NA
Location:  34.1°N, 49.4°E
Report Text: OIHM 250700Z 12004KT CAVOK 16/03 Q1022
Loading
Personal Weather Stations






























Interactive Weather Map New forecast layout! Learn more

10-Day Weather Forecast

Advertisements
Track Severe Weather on mobile